createdAt,value
2019-06-10T00:02:21.818Z,20.70
2019-06-10T00:04:50.707Z,20.70
2019-06-10T00:07:16.737Z,20.70
2019-06-10T00:09:43.413Z,20.70
2019-06-10T00:12:12.567Z,20.60
2019-06-10T00:14:38.671Z,20.60
2019-06-10T00:17:06.729Z,20.60
2019-06-10T00:19:33.970Z,20.60
2019-06-10T00:22:02.413Z,20.60
2019-06-10T00:24:31.341Z,20.50
2019-06-10T00:26:57.773Z,20.60
2019-06-10T00:29:24.610Z,20.60
2019-06-10T00:31:51.267Z,20.50
2019-06-10T00:34:17.680Z,20.40
2019-06-10T00:36:44.334Z,20.40
2019-06-10T00:39:13.486Z,20.40
2019-06-10T00:41:39.374Z,20.30
2019-06-10T00:44:25.798Z,20.30
2019-06-10T00:46:52.689Z,20.30
2019-06-10T00:49:21.095Z,20.30
2019-06-10T00:51:47.669Z,20.30
2019-06-10T00:54:15.779Z,20.30
2019-06-10T00:56:42.595Z,20.20
2019-06-10T00:59:12.765Z,20.30
2019-06-10T01:01:38.097Z,20.30
2019-06-10T01:04:06.539Z,20.10
2019-06-10T01:06:33.110Z,20.10
2019-06-10T01:09:00.664Z,20.10
2019-06-10T01:11:27.606Z,20.20
2019-06-10T01:13:54.068Z,20.20
2019-06-10T01:16:21.652Z,20.10
2019-06-10T01:18:50.469Z,20.10
2019-06-10T01:21:16.565Z,20.10
2019-06-10T01:23:43.279Z,20.10
2019-06-10T01:26:14.143Z,20.20
2019-06-10T01:28:38.111Z,20.20
2019-06-10T01:31:08.399Z,20.20
2019-06-10T01:33:33.129Z,20.20
2019-06-10T01:36:00.762Z,20.10
2019-06-10T01:38:27.302Z,20.10
2019-06-10T01:40:53.924Z,20.10
2019-06-10T01:43:21.367Z,20.00
2019-06-10T01:45:48.306Z,20.00
2019-06-10T01:48:16.395Z,20.00
2019-06-10T01:50:43.548Z,20.00
2019-06-10T01:53:12.672Z,20.00
2019-06-10T01:55:38.419Z,19.90
2019-06-10T01:58:04.922Z,19.90
2019-06-10T02:00:33.513Z,19.90
2019-06-10T02:03:03.484Z,19.80
2019-06-10T02:05:31.073Z,19.80
2019-06-10T02:07:56.838Z,19.70
2019-06-10T02:10:23.561Z,19.80
2019-06-10T02:12:50.854Z,19.70
2019-06-10T02:15:22.625Z,19.80
2019-06-10T02:17:50.971Z,19.80
2019-06-10T02:20:22.576Z,19.80
2019-06-10T02:22:47.733Z,19.80
2019-06-10T02:25:15.171Z,19.80
2019-06-10T02:27:41.661Z,19.80
2019-06-10T02:30:18.967Z,19.70
2019-06-10T02:32:38.122Z,19.60
2019-06-10T02:35:14.384Z,19.60
2019-06-10T02:37:38.152Z,19.60
2019-06-10T02:40:05.956Z,19.70
2019-06-10T02:42:37.077Z,19.70
2019-06-10T02:45:07.321Z,19.70
2019-06-10T02:47:38.096Z,19.70
2019-06-10T02:50:08.687Z,19.80
2019-06-10T02:52:38.127Z,19.80
2019-06-10T02:55:04.327Z,19.80
2019-06-10T02:57:39.460Z,19.80
2019-06-10T03:00:04.274Z,19.70
2019-06-10T03:02:31.816Z,19.70
2019-06-10T03:04:56.364Z,19.80
2019-06-10T03:07:28.196Z,19.70
2019-06-10T03:09:53.823Z,19.70
2019-06-10T03:12:19.737Z,19.70
2019-06-10T03:14:46.415Z,19.60
2019-06-10T03:17:17.971Z,19.70
2019-06-10T03:19:50.392Z,19.70
2019-06-10T03:22:13.218Z,19.60
2019-06-10T03:24:42.047Z,19.70
2019-06-10T03:27:08.198Z,19.70
2019-06-10T03:29:34.624Z,19.70
2019-06-10T03:32:05.315Z,19.70
2019-06-10T03:34:35.938Z,19.70
2019-06-10T03:36:57.840Z,19.70
2019-06-10T03:39:26.893Z,19.60
2019-06-10T03:41:52.854Z,19.70
2019-06-10T03:44:24.809Z,19.60
2019-06-10T03:46:52.311Z,19.70
2019-06-10T03:49:19.136Z,19.70
2019-06-10T03:51:45.731Z,19.70
2019-06-10T03:54:13.175Z,19.70
2019-06-10T03:56:40.023Z,19.70
2019-06-10T03:59:06.440Z,19.70
2019-06-10T04:01:33.443Z,19.60
2019-06-10T04:04:02.187Z,19.60
2019-06-10T04:06:29.427Z,19.60
2019-06-10T04:08:57.206Z,19.70
2019-06-10T04:11:25.900Z,19.60
2019-06-10T04:13:53.596Z,19.60
2019-06-10T04:16:22.661Z,19.70
2019-06-10T04:18:48.633Z,19.50
2019-06-10T04:21:15.246Z,19.60
2019-06-10T04:23:42.433Z,19.60
2019-06-10T04:26:09.174Z,19.60
2019-06-10T04:28:35.631Z,19.60
2019-06-10T04:31:02.793Z,19.60
2019-06-10T04:33:29.955Z,19.60
2019-06-10T04:35:56.529Z,19.50
2019-06-10T04:38:24.477Z,19.50
2019-06-10T04:40:52.546Z,19.60
2019-06-10T04:43:20.419Z,19.60
2019-06-10T04:45:48.240Z,19.60
2019-06-10T04:48:14.864Z,19.60
2019-06-10T04:50:45.998Z,19.60
2019-06-10T04:53:09.818Z,19.60
2019-06-10T04:55:36.482Z,19.70
2019-06-10T04:58:03.086Z,19.70
2019-06-10T05:00:30.414Z,19.70
2019-06-10T05:02:58.069Z,19.70
2019-06-10T05:05:26.822Z,19.70
2019-06-10T05:07:53.563Z,19.60
2019-06-10T05:10:23.205Z,19.60
2019-06-10T05:12:48.624Z,19.60
2019-06-10T05:15:17.519Z,19.60
2019-06-10T05:17:44.157Z,19.70
2019-06-10T05:20:12.528Z,19.70
2019-06-10T05:22:39.437Z,19.80
2019-06-10T05:25:07.046Z,19.80
2019-06-10T05:27:33.508Z,19.80
2019-06-10T05:30:02.310Z,19.80
2019-06-10T05:32:30.473Z,19.80
2019-06-10T05:34:57.673Z,19.80
2019-06-10T05:37:26.331Z,19.80
2019-06-10T05:39:52.646Z,19.80
2019-06-10T05:42:19.726Z,19.80
2019-06-10T05:44:46.201Z,19.80
2019-06-10T05:47:12.805Z,19.90
2019-06-10T05:49:39.316Z,19.90
2019-06-10T05:52:05.832Z,20.00
2019-06-10T05:54:34.012Z,20.00
2019-06-10T05:57:02.642Z,20.20
2019-06-10T05:59:29.419Z,20.20
2019-06-10T06:01:56.096Z,20.20
2019-06-10T06:04:23.351Z,20.20
2019-06-10T06:06:53.184Z,20.30
2019-06-10T06:09:19.415Z,20.40
2019-06-10T06:11:46.039Z,20.40
2019-06-10T06:14:13.181Z,20.50
2019-06-10T06:16:42.997Z,20.50
2019-06-10T06:19:08.767Z,20.60
2019-06-10T06:21:42.094Z,20.70
2019-06-10T06:24:04.172Z,20.70
2019-06-10T06:26:36.273Z,20.70
2019-06-10T06:29:02.121Z,20.80
2019-06-10T06:31:28.707Z,20.80
2019-06-10T06:33:55.424Z,20.80
2019-06-10T06:36:22.720Z,20.90
2019-06-10T06:38:49.598Z,21.00
2019-06-10T06:41:16.209Z,21.00
2019-06-10T06:43:45.380Z,21.00
2019-06-10T06:46:12.812Z,21.00
2019-06-10T06:48:43.396Z,21.10
2019-06-10T06:51:09.112Z,21.10
2019-06-10T06:53:45.296Z,21.20
2019-06-10T06:56:04.179Z,21.20
2019-06-10T06:58:33.287Z,21.20
2019-06-10T07:01:07.381Z,21.20
2019-06-10T07:03:27.475Z,21.30
2019-06-10T07:05:55.016Z,21.30
2019-06-10T07:08:23.217Z,21.40
2019-06-10T07:10:52.238Z,21.40
2019-06-10T07:13:18.993Z,21.50
2019-06-10T07:15:47.073Z,21.50
2019-06-10T07:18:14.053Z,21.60
2019-06-10T07:20:41.647Z,21.60
2019-06-10T07:23:09.065Z,21.70
2019-06-10T07:25:37.351Z,21.80
2019-06-10T07:28:04.433Z,21.80
2019-06-10T07:30:34.301Z,21.90
2019-06-10T07:32:59.456Z,22.00
2019-06-10T07:35:25.961Z,22.00
2019-06-10T07:37:52.630Z,22.10
2019-06-10T07:40:19.223Z,22.10
2019-06-10T07:42:45.734Z,22.10
2019-06-10T07:45:13.038Z,22.20
2019-06-10T07:47:41.104Z,22.40
2019-06-10T07:50:08.958Z,22.50
2019-06-10T07:52:37.311Z,22.60
2019-06-10T07:55:07.892Z,22.70
2019-06-10T07:57:35.654Z,22.80
2019-06-10T08:00:12.272Z,22.80
2019-06-10T08:02:39.717Z,22.90
2019-06-10T08:05:09.782Z,22.90
2019-06-10T08:07:36.734Z,23.00
2019-06-10T08:10:04.691Z,23.00
2019-06-10T08:12:32.545Z,23.10
2019-06-10T08:15:02.545Z,23.10
2019-06-10T08:17:27.772Z,23.20
2019-06-10T08:19:54.534Z,23.30
2019-06-10T08:22:31.168Z,23.40
2019-06-10T08:24:49.381Z,23.60
2019-06-10T08:27:16.767Z,23.70
2019-06-10T08:29:46.152Z,23.80
2019-06-10T08:32:13.139Z,23.80
2019-06-10T08:34:43.270Z,23.90
2019-06-10T08:37:08.629Z,23.90
2019-06-10T08:39:36.194Z,24.00
2019-06-10T08:42:03.295Z,24.00
2019-06-10T08:44:32.599Z,24.10
2019-06-10T08:46:58.522Z,24.10
2019-06-10T08:49:25.123Z,24.20
2019-06-10T08:51:53.314Z,24.30
2019-06-10T08:54:20.465Z,24.30
2019-06-10T08:56:50.270Z,24.40
2019-06-10T08:59:15.456Z,24.40
2019-06-10T09:01:46.865Z,24.50
2019-06-10T09:04:10.347Z,24.60
2019-06-10T09:06:38.692Z,24.60
2019-06-10T09:09:06.399Z,24.70
2019-06-10T09:11:33.051Z,24.70
2019-06-10T09:13:59.530Z,24.80
2019-06-10T09:16:26.078Z,24.70
2019-06-10T09:18:55.313Z,24.80
2019-06-10T09:21:22.334Z,24.80
2019-06-10T09:23:56.811Z,24.80
2019-06-10T09:26:17.692Z,24.80
2019-06-10T09:28:48.289Z,24.90
2019-06-10T09:31:14.079Z,24.90
2019-06-10T09:33:42.733Z,25.00
2019-06-10T09:36:09.559Z,25.00
2019-06-10T09:38:36.174Z,25.00
2019-06-10T09:41:06.189Z,25.00
2019-06-10T09:43:33.318Z,25.10
2019-06-10T09:46:03.241Z,25.10
2019-06-10T09:48:29.009Z,25.30
2019-06-10T09:50:58.647Z,25.40
2019-06-10T09:53:33.429Z,25.60
2019-06-10T09:55:55.458Z,25.80
2019-06-10T09:58:23.193Z,26.00
2019-06-10T10:00:57.353Z,26.10
2019-06-10T10:03:23.230Z,26.20
2019-06-10T10:06:00.737Z,26.30
2019-06-10T10:08:17.799Z,26.40
2019-06-10T10:10:47.960Z,26.40
2019-06-10T10:13:13.244Z,26.60
2019-06-10T10:15:39.848Z,26.70
2019-06-10T10:18:08.162Z,26.90
2019-06-10T10:20:35.304Z,27.10
2019-06-10T10:23:02.683Z,27.20
2019-06-10T10:25:32.663Z,27.10
2019-06-10T10:27:58.375Z,27.20
2019-06-10T10:30:26.865Z,27.30
2019-06-10T10:32:54.127Z,27.30
2019-06-10T10:35:21.452Z,27.30
2019-06-10T10:37:48.506Z,27.40
2019-06-10T10:40:15.766Z,27.60
2019-06-10T10:42:48.133Z,27.70
2019-06-10T10:45:13.056Z,27.80
2019-06-10T10:47:39.149Z,27.90
2019-06-10T10:50:06.550Z,28.30
2019-06-10T10:52:33.230Z,28.40
2019-06-10T10:55:05.891Z,28.40
2019-06-10T10:57:28.466Z,28.30
2019-06-10T10:59:56.239Z,28.10
2019-06-10T11:02:23.205Z,28.20
2019-06-10T11:04:49.823Z,28.30
2019-06-10T11:07:16.800Z,28.40
2019-06-10T11:09:44.832Z,28.30
2019-06-10T11:12:12.648Z,28.10
2019-06-10T11:14:39.312Z,28.00
2019-06-10T11:17:05.832Z,28.00
2019-06-10T11:19:33.065Z,27.90
2019-06-10T11:22:02.249Z,27.90
2019-06-10T11:24:36.654Z,28.20
2019-06-10T11:26:58.293Z,28.40
2019-06-10T11:29:25.085Z,28.60
2019-06-10T11:31:55.150Z,28.80
2019-06-10T11:34:20.339Z,29.00
2019-06-10T11:36:47.996Z,29.10
2019-06-10T11:39:14.908Z,29.20
2019-06-10T11:41:43.160Z,29.30
2019-06-10T11:44:09.963Z,29.30
2019-06-10T11:46:36.470Z,29.20
2019-06-10T11:49:04.028Z,29.20
2019-06-10T11:51:30.958Z,29.20
2019-06-10T11:53:58.885Z,29.40
2019-06-10T11:56:25.691Z,29.30
2019-06-10T11:58:55.130Z,29.30
2019-06-10T12:01:22.930Z,29.30
2019-06-10T12:03:48.975Z,29.40
2019-06-10T12:06:15.584Z,29.10
2019-06-10T12:08:43.488Z,29.10
2019-06-10T12:11:12.664Z,29.20
2019-06-10T12:13:39.006Z,29.40
2019-06-10T12:17:12.272Z,29.50
2019-06-10T12:18:34.016Z,29.60
2019-06-10T12:21:03.877Z,29.70
2019-06-10T12:23:29.133Z,29.60
2019-06-10T12:25:56.762Z,29.50
2019-06-10T12:28:24.006Z,29.50
2019-06-10T12:30:55.493Z,29.30
2019-06-10T12:33:24.848Z,29.40
2019-06-10T12:35:47.914Z,29.40
2019-06-10T12:38:14.514Z,29.60
2019-06-10T12:40:42.860Z,29.80
2019-06-10T12:43:09.414Z,30.00
2019-06-10T12:45:35.921Z,30.20
2019-06-10T12:48:06.375Z,30.30
2019-06-10T12:50:30.727Z,30.30
2019-06-10T12:52:57.893Z,30.30
2019-06-10T12:55:38.437Z,30.20
2019-06-10T12:57:54.402Z,30.00
2019-06-10T13:00:25.702Z,29.80
2019-06-10T13:02:53.139Z,29.70
2019-06-10T13:05:19.787Z,29.60
2019-06-10T13:07:47.010Z,29.50
2019-06-10T13:10:17.273Z,29.50
2019-06-10T13:12:43.703Z,29.50
2019-06-10T13:15:11.125Z,29.30
2019-06-10T13:17:37.582Z,29.30
2019-06-10T13:20:07.874Z,29.30
2019-06-10T13:22:34.455Z,29.30
2019-06-10T13:25:01.111Z,29.30
2019-06-10T13:27:27.534Z,29.30
2019-06-10T13:29:54.008Z,29.30
2019-06-10T13:32:20.646Z,29.20
2019-06-10T13:34:47.134Z,29.00
2019-06-10T13:37:16.115Z,28.90
2019-06-10T13:39:43.079Z,28.90
2019-06-10T13:42:10.232Z,28.90
2019-06-10T13:44:37.910Z,29.00
2019-06-10T13:47:07.069Z,29.00
2019-06-10T13:49:33.163Z,28.90
2019-06-10T13:52:01.172Z,29.00
2019-06-10T13:54:28.717Z,28.90
2019-06-10T13:56:55.239Z,28.90
2019-06-10T13:59:23.033Z,29.10
2019-06-10T14:01:49.620Z,29.30
2019-06-10T14:04:22.083Z,29.60
2019-06-10T14:06:49.823Z,29.70
2019-06-10T14:09:16.699Z,29.80
2019-06-10T14:11:42.420Z,29.80
2019-06-10T14:14:09.529Z,29.80
2019-06-10T14:16:36.160Z,29.70
2019-06-10T14:19:05.816Z,29.60
2019-06-10T14:21:33.087Z,29.50
2019-06-10T14:23:59.537Z,29.50
2019-06-10T14:26:39.952Z,29.40
2019-06-10T14:28:54.433Z,29.50
2019-06-10T14:31:38.217Z,29.50
2019-06-10T14:33:49.643Z,29.50
2019-06-10T14:36:17.038Z,29.50
2019-06-10T14:38:43.938Z,29.60
2019-06-10T14:41:10.547Z,29.70
2019-06-10T14:43:36.987Z,29.90
2019-06-10T14:46:04.674Z,30.00
2019-06-10T14:48:33.656Z,29.90
2019-06-10T14:50:59.697Z,30.00
2019-06-10T14:53:27.714Z,29.90
2019-06-10T14:55:54.134Z,29.90
2019-06-10T14:58:23.021Z,29.90
2019-06-10T15:00:49.156Z,29.90
2019-06-10T15:03:19.665Z,29.90
2019-06-10T15:05:44.008Z,29.90
2019-06-10T15:08:13.700Z,29.90
2019-06-10T15:10:39.003Z,29.90
2019-06-10T15:13:05.670Z,30.00
2019-06-10T15:15:33.033Z,30.00
2019-06-10T15:17:59.939Z,30.00
2019-06-10T15:20:26.668Z,29.90
2019-06-10T15:22:53.397Z,29.80
2019-06-10T15:25:25.399Z,30.00
2019-06-10T15:27:49.244Z,30.00
2019-06-10T15:30:25.794Z,29.90
2019-06-10T15:32:44.568Z,30.00
2019-06-10T15:35:13.710Z,30.10
2019-06-10T15:37:40.162Z,30.20
2019-06-10T15:40:09.028Z,30.20
2019-06-10T15:42:35.586Z,30.20
2019-06-10T15:45:05.400Z,30.20
2019-06-10T15:47:31.985Z,30.20
2019-06-10T15:49:58.605Z,30.20
2019-06-10T15:52:25.346Z,30.20
2019-06-10T15:54:52.548Z,30.10
2019-06-10T15:57:34.818Z,30.10
2019-06-10T15:59:48.047Z,30.10
2019-06-10T16:02:17.905Z,30.10
2019-06-10T16:04:43.318Z,30.00
2019-06-10T16:07:10.153Z,30.00
2019-06-10T16:09:36.594Z,30.00
2019-06-10T16:12:03.663Z,30.00
2019-06-10T16:14:30.216Z,30.00
2019-06-10T16:16:56.731Z,29.90
2019-06-10T16:19:23.435Z,29.90
2019-06-10T16:21:52.487Z,29.90
2019-06-10T16:24:20.431Z,29.90
2019-06-10T16:26:47.217Z,29.80
2019-06-10T16:29:15.002Z,29.90
2019-06-10T16:31:42.559Z,29.70
2019-06-10T16:34:09.509Z,29.70
2019-06-10T16:36:36.478Z,29.70
2019-06-10T16:39:06.502Z,29.70
2019-06-10T16:41:33.031Z,29.60
2019-06-10T16:43:59.674Z,29.50
2019-06-10T16:46:26.923Z,29.40
2019-06-10T16:48:54.383Z,29.40
2019-06-10T16:51:21.633Z,29.40
2019-06-10T16:53:49.131Z,29.40
2019-06-10T16:56:15.719Z,29.40
2019-06-10T16:58:43.237Z,29.40
2019-06-10T17:01:12.218Z,29.30
2019-06-10T17:03:38.122Z,29.30
2019-06-10T17:06:04.778Z,29.20
2019-06-10T17:08:33.414Z,29.20
2019-06-10T17:11:00.038Z,29.20
2019-06-10T17:13:28.907Z,29.20
2019-06-10T17:15:56.604Z,29.10
2019-06-10T17:18:26.136Z,29.10
2019-06-10T17:20:53.545Z,29.10
2019-06-10T17:23:21.764Z,29.10
2019-06-10T17:25:53.299Z,29.00
2019-06-10T17:28:20.773Z,29.00
2019-06-10T17:30:47.908Z,29.00
2019-06-10T17:33:14.782Z,28.90
2019-06-10T17:35:43.242Z,28.80
2019-06-10T17:38:12.086Z,28.80
2019-06-10T17:40:38.584Z,28.70
2019-06-10T17:43:05.105Z,28.60
2019-06-10T17:45:32.195Z,28.60
2019-06-10T17:47:59.124Z,28.50
2019-06-10T17:50:26.840Z,28.50
2019-06-10T17:52:54.058Z,28.40
2019-06-10T17:55:23.311Z,28.40
2019-06-10T17:57:49.094Z,28.40
2019-06-10T18:00:16.058Z,28.40
2019-06-10T18:02:42.688Z,28.30
2019-06-10T18:05:09.987Z,28.30
2019-06-10T18:07:36.654Z,28.20
2019-06-10T18:10:05.291Z,28.20
2019-06-10T18:12:33.973Z,28.20
2019-06-10T18:15:00.227Z,28.10
2019-06-10T18:17:27.501Z,28.10
2019-06-10T18:19:55.130Z,28.10
2019-06-10T18:22:22.864Z,28.00
2019-06-10T18:24:49.497Z,28.10
2019-06-10T18:27:16.120Z,28.00
2019-06-10T18:29:43.149Z,28.00
2019-06-10T18:32:12.251Z,28.00
2019-06-10T18:34:38.193Z,28.00
2019-06-10T18:37:04.885Z,27.90
2019-06-10T18:39:31.647Z,27.90
2019-06-10T18:41:58.496Z,27.80
2019-06-10T18:44:26.576Z,27.80
2019-06-10T18:46:55.351Z,27.80
2019-06-10T18:49:22.668Z,27.80
2019-06-10T18:51:49.532Z,27.70
2019-06-10T18:54:16.050Z,27.70
2019-06-10T18:56:43.034Z,27.70
2019-06-10T18:59:19.578Z,27.60
2019-06-10T19:01:38.895Z,27.60
2019-06-10T19:04:05.378Z,27.60
2019-06-10T19:06:35.423Z,27.60
2019-06-10T19:09:05.596Z,27.60
2019-06-10T19:11:34.085Z,27.50
2019-06-10T19:14:00.387Z,27.50
2019-06-10T19:16:27.129Z,27.50
2019-06-10T19:18:53.580Z,27.50
2019-06-10T19:21:20.411Z,27.40
2019-06-10T19:23:46.868Z,27.40
2019-06-10T19:26:13.641Z,27.40
2019-06-10T19:28:42.056Z,27.40
2019-06-10T19:31:08.733Z,27.30
2019-06-10T19:33:37.019Z,27.30
2019-06-10T19:36:04.242Z,27.30
2019-06-10T19:38:32.402Z,27.30
2019-06-10T19:40:59.107Z,27.30
2019-06-10T19:43:25.732Z,27.20
2019-06-10T19:45:52.956Z,27.20
2019-06-10T19:48:19.800Z,27.20
2019-06-10T19:50:50.123Z,27.10
2019-06-10T19:53:14.894Z,27.10
2019-06-10T19:55:43.854Z,27.10
2019-06-10T19:58:10.591Z,27.10
2019-06-10T20:00:37.860Z,27.00
2019-06-10T20:03:04.423Z,27.00
2019-06-10T20:05:32.682Z,27.00
2019-06-10T20:07:59.497Z,27.00
2019-06-10T20:10:26.152Z,27.00
2019-06-10T20:12:53.691Z,26.90
2019-06-10T20:15:25.169Z,26.90
2019-06-10T20:17:52.672Z,26.90
2019-06-10T20:20:22.318Z,26.80
2019-06-10T20:22:48.198Z,26.80
2019-06-10T20:25:15.351Z,26.80
2019-06-10T20:27:43.755Z,26.70
2019-06-10T20:30:24.147Z,26.70
2019-06-10T20:32:41.535Z,26.70
2019-06-10T20:35:09.898Z,26.60
2019-06-10T20:37:37.606Z,26.60
2019-06-10T20:40:05.169Z,26.60
2019-06-10T20:42:32.317Z,26.60
2019-06-10T20:44:59.162Z,26.60
2019-06-10T20:47:25.797Z,26.50
2019-06-10T20:49:55.996Z,26.50
2019-06-10T20:52:22.209Z,26.50
2019-06-10T20:54:50.066Z,26.40
2019-06-10T20:57:16.921Z,26.40
2019-06-10T20:59:45.243Z,26.40
2019-06-10T21:02:13.561Z,26.40
2019-06-10T21:04:41.694Z,26.30
2019-06-10T21:07:12.572Z,26.30
2019-06-10T21:09:42.003Z,26.30
2019-06-10T21:12:09.018Z,26.20
2019-06-10T21:14:35.632Z,26.20
2019-06-10T21:17:03.077Z,26.20
2019-06-10T21:19:29.992Z,26.20
2019-06-10T21:21:56.555Z,26.10
2019-06-10T21:24:23.288Z,26.10
2019-06-10T21:26:54.278Z,26.10
2019-06-10T21:29:18.890Z,26.10
2019-06-10T21:31:47.294Z,26.10
2019-06-10T21:34:13.870Z,26.00
2019-06-10T21:36:41.225Z,26.00
2019-06-10T21:39:08.037Z,26.00
2019-06-10T21:41:34.772Z,26.00
2019-06-10T21:44:03.100Z,25.90
2019-06-10T21:46:29.676Z,25.90
2019-06-10T21:48:56.300Z,25.90
2019-06-10T21:51:23.508Z,25.90
2019-06-10T21:53:51.300Z,25.90
2019-06-10T21:56:18.382Z,25.80
2019-06-10T21:58:45.048Z,25.80
2019-06-10T22:01:16.871Z,25.80
2019-06-10T22:03:44.476Z,25.70
2019-06-10T22:06:12.304Z,25.70
2019-06-10T22:08:39.210Z,25.70
2019-06-10T22:11:05.817Z,25.60
2019-06-10T22:13:32.859Z,25.70
2019-06-10T22:15:59.788Z,25.60
2019-06-10T22:18:26.213Z,25.60
2019-06-10T22:20:56.066Z,25.60
2019-06-10T22:23:23.203Z,25.60
2019-06-10T22:25:51.360Z,25.60
2019-06-10T22:28:18.104Z,25.50
2019-06-10T22:30:45.144Z,25.50
2019-06-10T22:33:12.334Z,25.50
2019-06-10T22:35:39.553Z,25.50
2019-06-10T22:38:06.077Z,25.50
2019-06-10T22:40:32.880Z,25.40
2019-06-10T22:42:59.671Z,25.40
2019-06-10T22:45:26.066Z,25.40
2019-06-10T22:47:54.107Z,25.40
2019-06-10T22:50:22.981Z,25.40
2019-06-10T22:52:49.408Z,25.40
2019-06-10T22:55:16.019Z,25.40
2019-06-10T22:57:43.913Z,25.30
2019-06-10T23:00:13.083Z,25.30
2019-06-10T23:02:39.586Z,25.30
2019-06-10T23:05:06.719Z,25.30
2019-06-10T23:07:33.788Z,25.20
2019-06-10T23:10:03.075Z,25.20
2019-06-10T23:12:28.771Z,25.10
2019-06-10T23:14:56.583Z,25.10
2019-06-10T23:17:23.634Z,25.10
2019-06-10T23:19:53.545Z,25.10
2019-06-10T23:22:21.909Z,25.00
2019-06-10T23:24:48.088Z,25.00
2019-06-10T23:27:15.948Z,25.00
2019-06-10T23:29:42.968Z,25.00
2019-06-10T23:32:09.584Z,25.00
2019-06-10T23:34:36.148Z,25.00
2019-06-10T23:37:02.763Z,24.90
2019-06-10T23:39:29.278Z,24.90
2019-06-10T23:41:56.750Z,24.90
2019-06-10T23:44:24.295Z,24.90
2019-06-10T23:46:51.291Z,24.90
2019-06-10T23:49:17.953Z,24.90
2019-06-10T23:51:44.394Z,24.90
2019-06-10T23:54:12.652Z,24.90
2019-06-10T23:56:39.273Z,24.90
2019-06-10T23:59:05.723Z,24.90
